sensor_id;sensor_type;location;lat;lon;timestamp;P1;durP1;ratioP1;P2;durP2;ratioP2
75589;SDS011;64169;47.240;11.312;2023-03-14T00:00:28;4.05;;;1.50;;
75589;SDS011;64169;47.240;11.312;2023-03-14T00:02:53;5.00;;;1.45;;
75589;SDS011;64169;47.240;11.312;2023-03-14T00:05:19;5.05;;;1.80;;
75589;SDS011;64169;47.240;11.312;2023-03-14T00:07:44;5.07;;;1.60;;
75589;SDS011;64169;47.240;11.312;2023-03-14T00:10:11;4.18;;;1.40;;
75589;SDS011;64169;47.240;11.312;2023-03-14T00:12:38;4.43;;;1.40;;
75589;SDS011;64169;47.240;11.312;2023-03-14T00:15:04;4.13;;;1.45;;
75589;SDS011;64169;47.240;11.312;2023-03-14T00:17:33;4.63;;;1.40;;
75589;SDS011;64169;47.240;11.312;2023-03-14T00:19:59;8.18;;;1.50;;
75589;SDS011;64169;47.240;11.312;2023-03-14T00:22:36;5.47;;;1.40;;
75589;SDS011;64169;47.240;11.312;2023-03-14T00:25:03;4.47;;;1.20;;
75589;SDS011;64169;47.240;11.312;2023-03-14T00:27:29;5.07;;;1.50;;
75589;SDS011;64169;47.240;11.312;2023-03-14T00:29:55;4.68;;;1.52;;
75589;SDS011;64169;47.240;11.312;2023-03-14T00:32:21;4.30;;;1.55;;
75589;SDS011;64169;47.240;11.312;2023-03-14T00:34:46;5.65;;;1.80;;
75589;SDS011;64169;47.240;11.312;2023-03-14T00:37:11;4.93;;;1.67;;
75589;SDS011;64169;47.240;11.312;2023-03-14T00:39:37;5.55;;;1.55;;
75589;SDS011;64169;47.240;11.312;2023-03-14T00:42:02;5.95;;;1.50;;
75589;SDS011;64169;47.240;11.312;2023-03-14T00:44:28;5.20;;;1.60;;
75589;SDS011;64169;47.240;11.312;2023-03-14T00:46:53;4.97;;;1.50;;
75589;SDS011;64169;47.240;11.312;2023-03-14T00:49:19;3.88;;;1.48;;
75589;SDS011;64169;47.240;11.312;2023-03-14T00:51:44;5.63;;;1.90;;
75589;SDS011;64169;47.240;11.312;2023-03-14T00:54:10;4.95;;;1.85;;
75589;SDS011;64169;47.240;11.312;2023-03-14T00:56:35;7.05;;;1.90;;
75589;SDS011;64169;47.240;11.312;2023-03-14T00:59:00;4.95;;;1.75;;
75589;SDS011;64169;47.240;11.312;2023-03-14T01:01:26;4.80;;;1.58;;
75589;SDS011;64169;47.240;11.312;2023-03-14T01:03:52;4.25;;;1.65;;
75589;SDS011;64169;47.240;11.312;2023-03-14T01:06:19;5.70;;;1.67;;
75589;SDS011;64169;47.240;11.312;2023-03-14T01:08:46;4.25;;;1.40;;
75589;SDS011;64169;47.240;11.312;2023-03-14T01:11:13;7.57;;;2.15;;
75589;SDS011;64169;47.240;11.312;2023-03-14T01:13:41;4.55;;;1.63;;
75589;SDS011;64169;47.240;11.312;2023-03-14T01:16:07;4.28;;;1.38;;
75589;SDS011;64169;47.240;11.312;2023-03-14T01:18:35;6.07;;;1.90;;
75589;SDS011;64169;47.240;11.312;2023-03-14T01:21:09;5.10;;;1.75;;
75589;SDS011;64169;47.240;11.312;2023-03-14T01:23:39;4.63;;;1.52;;
75589;SDS011;64169;47.240;11.312;2023-03-14T01:26:07;5.45;;;1.45;;
75589;SDS011;64169;47.240;11.312;2023-03-14T01:28:34;7.20;;;2.55;;
75589;SDS011;64169;47.240;11.312;2023-03-14T01:31:03;5.63;;;1.52;;
75589;SDS011;64169;47.240;11.312;2023-03-14T01:33:29;5.28;;;1.67;;
75589;SDS011;64169;47.240;11.312;2023-03-14T01:35:55;5.40;;;2.00;;
75589;SDS011;64169;47.240;11.312;2023-03-14T01:38:20;4.78;;;1.50;;
75589;SDS011;64169;47.240;11.312;2023-03-14T01:40:46;5.72;;;1.73;;
75589;SDS011;64169;47.240;11.312;2023-03-14T01:43:16;5.15;;;1.92;;
75589;SDS011;64169;47.240;11.312;2023-03-14T01:48:40;5.05;;;1.45;;
75589;SDS011;64169;47.240;11.312;2023-03-14T01:51:09;4.82;;;1.60;;
75589;SDS011;64169;47.240;11.312;2023-03-14T01:53:37;5.15;;;2.08;;
75589;SDS011;64169;47.240;11.312;2023-03-14T01:56:03;5.50;;;1.80;;
75589;SDS011;64169;47.240;11.312;2023-03-14T01:58:29;7.35;;;2.22;;
75589;SDS011;64169;47.240;11.312;2023-03-14T02:00:57;5.25;;;1.60;;
75589;SDS011;64169;47.240;11.312;2023-03-14T02:03:24;6.50;;;1.75;;
75589;SDS011;64169;47.240;11.312;2023-03-14T02:05:50;8.45;;;1.90;;
75589;SDS011;64169;47.240;11.312;2023-03-14T02:08:19;6.38;;;1.80;;
75589;SDS011;64169;47.240;11.312;2023-03-14T02:10:47;3.47;;;1.30;;
75589;SDS011;64169;47.240;11.312;2023-03-14T02:13:14;6.40;;;2.15;;
75589;SDS011;64169;47.240;11.312;2023-03-14T02:15:41;3.40;;;1.27;;
75589;SDS011;64169;47.240;11.312;2023-03-14T02:18:07;4.38;;;1.50;;
75589;SDS011;64169;47.240;11.312;2023-03-14T02:26:27;5.85;;;1.80;;
75589;SDS011;64169;47.240;11.312;2023-03-14T02:28:56;4.65;;;1.30;;
75589;SDS011;64169;47.240;11.312;2023-03-14T02:31:21;4.00;;;1.60;;
75589;SDS011;64169;47.240;11.312;2023-03-14T02:33:47;3.30;;;1.15;;
75589;SDS011;64169;47.240;11.312;2023-03-14T02:36:13;5.40;;;1.80;;
75589;SDS011;64169;47.240;11.312;2023-03-14T02:41:07;5.65;;;1.70;;
75589;SDS011;64169;47.240;11.312;2023-03-14T02:43:32;4.65;;;1.65;;
75589;SDS011;64169;47.240;11.312;2023-03-14T02:45:58;5.93;;;1.73;;
75589;SDS011;64169;47.240;11.312;2023-03-14T02:48:28;4.78;;;1.63;;
75589;SDS011;64169;47.240;11.312;2023-03-14T02:50:57;4.43;;;1.75;;
75589;SDS011;64169;47.240;11.312;2023-03-14T02:53:26;5.80;;;1.80;;
75589;SDS011;64169;47.240;11.312;2023-03-14T02:55:56;6.13;;;1.67;;
75589;SDS011;64169;47.240;11.312;2023-03-14T02:58:22;5.00;;;1.60;;
75589;SDS011;64169;47.240;11.312;2023-03-14T03:00:48;5.20;;;2.00;;
75589;SDS011;64169;47.240;11.312;2023-03-14T03:03:13;5.25;;;1.80;;
75589;SDS011;64169;47.240;11.312;2023-03-14T03:05:39;8.77;;;1.75;;
75589;SDS011;64169;47.240;11.312;2023-03-14T03:08:05;5.85;;;2.42;;
75589;SDS011;64169;47.240;11.312;2023-03-14T03:10:31;6.00;;;2.20;;
75589;SDS011;64169;47.240;11.312;2023-03-14T03:12:57;5.78;;;2.00;;
75589;SDS011;64169;47.240;11.312;2023-03-14T03:15:22;5.95;;;2.08;;
75589;SDS011;64169;47.240;11.312;2023-03-14T03:17:49;5.88;;;2.05;;
75589;SDS011;64169;47.240;11.312;2023-03-14T03:20:14;7.38;;;2.17;;
75589;SDS011;64169;47.240;11.312;2023-03-14T03:22:40;5.55;;;1.90;;
75589;SDS011;64169;47.240;11.312;2023-03-14T03:25:06;9.48;;;2.60;;
75589;SDS011;64169;47.240;11.312;2023-03-14T03:27:32;6.80;;;2.58;;
75589;SDS011;64169;47.240;11.312;2023-03-14T03:29:58;7.47;;;2.80;;
75589;SDS011;64169;47.240;11.312;2023-03-14T03:32:24;6.40;;;2.28;;
75589;SDS011;64169;47.240;11.312;2023-03-14T03:34:50;5.68;;;2.22;;
75589;SDS011;64169;47.240;11.312;2023-03-14T03:37:15;5.57;;;2.17;;
75589;SDS011;64169;47.240;11.312;2023-03-14T03:39:40;8.57;;;2.40;;
75589;SDS011;64169;47.240;11.312;2023-03-14T03:42:06;5.05;;;2.10;;
75589;SDS011;64169;47.240;11.312;2023-03-14T03:44:31;6.95;;;1.90;;
75589;SDS011;64169;47.240;11.312;2023-03-14T03:46:56;7.07;;;2.58;;
75589;SDS011;64169;47.240;11.312;2023-03-14T03:49:22;5.47;;;2.40;;
75589;SDS011;64169;47.240;11.312;2023-03-14T03:51:47;5.80;;;2.20;;
75589;SDS011;64169;47.240;11.312;2023-03-14T03:54:13;6.90;;;2.60;;
75589;SDS011;64169;47.240;11.312;2023-03-14T03:56:38;6.13;;;2.17;;
75589;SDS011;64169;47.240;11.312;2023-03-14T03:59:04;6.50;;;2.70;;
75589;SDS011;64169;47.240;11.312;2023-03-14T04:01:29;6.45;;;2.53;;
75589;SDS011;64169;47.240;11.312;2023-03-14T04:03:54;7.05;;;2.55;;
75589;SDS011;64169;47.240;11.312;2023-03-14T04:06:20;7.47;;;2.65;;
75589;SDS011;64169;47.240;11.312;2023-03-14T04:08:45;7.20;;;2.63;;
75589;SDS011;64169;47.240;11.312;2023-03-14T04:11:11;7.68;;;3.03;;
75589;SDS011;64169;47.240;11.312;2023-03-14T04:13:36;7.13;;;3.22;;
75589;SDS011;64169;47.240;11.312;2023-03-14T04:16:01;7.38;;;2.55;;
75589;SDS011;64169;47.240;11.312;2023-03-14T04:18:27;7.68;;;2.97;;
75589;SDS011;64169;47.240;11.312;2023-03-14T04:20:54;6.93;;;3.65;;
75589;SDS011;64169;47.240;11.312;2023-03-14T04:23:20;6.40;;;2.45;;
75589;SDS011;64169;47.240;11.312;2023-03-14T04:25:49;7.13;;;2.45;;
75589;SDS011;64169;47.240;11.312;2023-03-14T04:28:15;6.28;;;2.40;;
75589;SDS011;64169;47.240;11.312;2023-03-14T04:30:40;5.32;;;2.10;;
75589;SDS011;64169;47.240;11.312;2023-03-14T04:33:06;5.90;;;2.22;;
75589;SDS011;64169;47.240;11.312;2023-03-14T04:35:32;6.35;;;2.33;;
75589;SDS011;64169;47.240;11.312;2023-03-14T04:37:57;8.82;;;3.03;;
75589;SDS011;64169;47.240;11.312;2023-03-14T04:40:24;6.82;;;2.38;;
75589;SDS011;64169;47.240;11.312;2023-03-14T04:42:49;7.22;;;2.55;;
75589;SDS011;64169;47.240;11.312;2023-03-14T04:45:15;7.75;;;2.35;;
75589;SDS011;64169;47.240;11.312;2023-03-14T04:47:40;7.57;;;2.47;;
75589;SDS011;64169;47.240;11.312;2023-03-14T04:50:06;6.22;;;2.40;;
75589;SDS011;64169;47.240;11.312;2023-03-14T04:52:32;7.85;;;2.30;;
75589;SDS011;64169;47.240;11.312;2023-03-14T04:54:57;6.35;;;2.30;;
75589;SDS011;64169;47.240;11.312;2023-03-14T04:57:23;9.00;;;2.50;;
75589;SDS011;64169;47.240;11.312;2023-03-14T04:59:48;5.28;;;1.90;;
75589;SDS011;64169;47.240;11.312;2023-03-14T05:02:14;5.22;;;1.80;;
75589;SDS011;64169;47.240;11.312;2023-03-14T05:04:39;4.43;;;1.33;;
75589;SDS011;64169;47.240;11.312;2023-03-14T05:07:04;4.93;;;1.85;;
75589;SDS011;64169;47.240;11.312;2023-03-14T05:09:30;5.63;;;2.00;;
75589;SDS011;64169;47.240;11.312;2023-03-14T05:11:55;5.68;;;1.95;;
75589;SDS011;64169;47.240;11.312;2023-03-14T05:14:20;5.03;;;1.83;;
75589;SDS011;64169;47.240;11.312;2023-03-14T05:16:46;7.82;;;2.80;;
75589;SDS011;64169;47.240;11.312;2023-03-14T05:19:11;7.18;;;2.88;;
75589;SDS011;64169;47.240;11.312;2023-03-14T05:21:37;9.43;;;3.38;;
75589;SDS011;64169;47.240;11.312;2023-03-14T05:24:03;7.22;;;3.25;;
75589;SDS011;64169;47.240;11.312;2023-03-14T05:26:28;11.52;;;4.57;;
75589;SDS011;64169;47.240;11.312;2023-03-14T05:28:54;14.45;;;4.53;;
75589;SDS011;64169;47.240;11.312;2023-03-14T05:31:19;32.83;;;10.70;;
75589;SDS011;64169;47.240;11.312;2023-03-14T05:33:44;26.33;;;9.93;;
75589;SDS011;64169;47.240;11.312;2023-03-14T05:36:10;23.27;;;8.38;;
75589;SDS011;64169;47.240;11.312;2023-03-14T05:38:35;24.67;;;8.45;;
75589;SDS011;64169;47.240;11.312;2023-03-14T05:41:01;27.88;;;8.40;;
75589;SDS011;64169;47.240;11.312;2023-03-14T05:43:26;18.23;;;6.53;;
75589;SDS011;64169;47.240;11.312;2023-03-14T05:45:52;16.88;;;6.88;;
75589;SDS011;64169;47.240;11.312;2023-03-14T05:48:17;11.57;;;4.30;;
75589;SDS011;64169;47.240;11.312;2023-03-14T05:50:43;8.00;;;3.55;;
75589;SDS011;64169;47.240;11.312;2023-03-14T05:53:09;10.75;;;3.80;;
75589;SDS011;64169;47.240;11.312;2023-03-14T05:55:34;8.93;;;3.53;;
75589;SDS011;64169;47.240;11.312;2023-03-14T05:58:00;8.38;;;3.40;;
75589;SDS011;64169;47.240;11.312;2023-03-14T06:00:25;8.02;;;3.08;;
75589;SDS011;64169;47.240;11.312;2023-03-14T06:02:51;11.13;;;4.95;;
75589;SDS011;64169;47.240;11.312;2023-03-14T06:05:16;8.85;;;3.90;;
75589;SDS011;64169;47.240;11.312;2023-03-14T06:07:42;7.38;;;3.15;;
75589;SDS011;64169;47.240;11.312;2023-03-14T06:10:07;7.82;;;3.20;;
75589;SDS011;64169;47.240;11.312;2023-03-14T06:12:33;6.63;;;2.70;;
75589;SDS011;64169;47.240;11.312;2023-03-14T06:14:58;7.50;;;2.70;;
75589;SDS011;64169;47.240;11.312;2023-03-14T06:17:24;6.10;;;2.40;;
75589;SDS011;64169;47.240;11.312;2023-03-14T06:19:49;6.60;;;2.58;;
75589;SDS011;64169;47.240;11.312;2023-03-14T06:22:14;7.05;;;2.83;;
75589;SDS011;64169;47.240;11.312;2023-03-14T06:24:40;5.97;;;2.40;;
75589;SDS011;64169;47.240;11.312;2023-03-14T06:27:05;6.10;;;2.53;;
75589;SDS011;64169;47.240;11.312;2023-03-14T06:29:31;5.30;;;2.10;;
75589;SDS011;64169;47.240;11.312;2023-03-14T06:31:56;6.07;;;1.67;;
75589;SDS011;64169;47.240;11.312;2023-03-14T06:34:22;5.50;;;2.13;;
75589;SDS011;64169;47.240;11.312;2023-03-14T06:36:47;6.10;;;2.42;;
75589;SDS011;64169;47.240;11.312;2023-03-14T06:39:13;6.22;;;2.20;;
75589;SDS011;64169;47.240;11.312;2023-03-14T06:41:38;7.32;;;2.53;;
75589;SDS011;64169;47.240;11.312;2023-03-14T06:44:04;6.95;;;2.72;;
75589;SDS011;64169;47.240;11.312;2023-03-14T06:46:29;6.85;;;3.00;;
75589;SDS011;64169;47.240;11.312;2023-03-14T06:48:55;6.72;;;2.90;;
75589;SDS011;64169;47.240;11.312;2023-03-14T06:51:20;6.30;;;2.85;;
75589;SDS011;64169;47.240;11.312;2023-03-14T06:53:46;6.45;;;2.28;;
75589;SDS011;64169;47.240;11.312;2023-03-14T06:56:11;4.38;;;1.73;;
75589;SDS011;64169;47.240;11.312;2023-03-14T06:58:37;5.10;;;1.90;;
75589;SDS011;64169;47.240;11.312;2023-03-14T07:01:02;5.68;;;2.67;;
75589;SDS011;64169;47.240;11.312;2023-03-14T07:03:28;5.90;;;2.10;;
75589;SDS011;64169;47.240;11.312;2023-03-14T07:05:54;4.63;;;1.63;;
75589;SDS011;64169;47.240;11.312;2023-03-14T07:08:19;4.47;;;1.85;;
75589;SDS011;64169;47.240;11.312;2023-03-14T07:10:45;5.38;;;1.83;;
75589;SDS011;64169;47.240;11.312;2023-03-14T07:13:10;4.95;;;1.85;;
75589;SDS011;64169;47.240;11.312;2023-03-14T07:15:36;5.03;;;1.40;;
75589;SDS011;64169;47.240;11.312;2023-03-14T07:18:01;4.80;;;1.27;;
75589;SDS011;64169;47.240;11.312;2023-03-14T07:20:26;5.15;;;1.40;;
75589;SDS011;64169;47.240;11.312;2023-03-14T07:22:52;3.50;;;1.40;;
75589;SDS011;64169;47.240;11.312;2023-03-14T07:25:17;4.43;;;1.30;;
75589;SDS011;64169;47.240;11.312;2023-03-14T07:27:43;3.10;;;1.10;;
75589;SDS011;64169;47.240;11.312;2023-03-14T07:30:11;3.65;;;1.23;;
75589;SDS011;64169;47.240;11.312;2023-03-14T07:32:37;4.78;;;1.52;;
75589;SDS011;64169;47.240;11.312;2023-03-14T07:35:02;5.15;;;1.50;;
75589;SDS011;64169;47.240;11.312;2023-03-14T07:37:28;5.40;;;1.67;;
75589;SDS011;64169;47.240;11.312;2023-03-14T07:39:53;5.13;;;1.80;;
75589;SDS011;64169;47.240;11.312;2023-03-14T07:42:19;4.93;;;1.85;;
75589;SDS011;64169;47.240;11.312;2023-03-14T07:44:44;7.90;;;2.53;;
75589;SDS011;64169;47.240;11.312;2023-03-14T07:47:09;6.10;;;2.30;;
75589;SDS011;64169;47.240;11.312;2023-03-14T07:49:35;5.10;;;1.80;;
75589;SDS011;64169;47.240;11.312;2023-03-14T07:52:00;5.13;;;1.83;;
75589;SDS011;64169;47.240;11.312;2023-03-14T07:54:26;4.60;;;1.77;;
75589;SDS011;64169;47.240;11.312;2023-03-14T07:56:51;4.60;;;1.40;;
75589;SDS011;64169;47.240;11.312;2023-03-14T07:59:17;3.67;;;1.17;;
75589;SDS011;64169;47.240;11.312;2023-03-14T08:01:43;4.07;;;1.35;;
75589;SDS011;64169;47.240;11.312;2023-03-14T08:04:09;4.20;;;1.48;;
75589;SDS011;64169;47.240;11.312;2023-03-14T08:06:35;4.05;;;1.40;;
75589;SDS011;64169;47.240;11.312;2023-03-14T08:09:00;4.65;;;1.40;;
75589;SDS011;64169;47.240;11.312;2023-03-14T08:11:26;3.30;;;1.20;;
75589;SDS011;64169;47.240;11.312;2023-03-14T08:13:52;4.80;;;1.67;;
75589;SDS011;64169;47.240;11.312;2023-03-14T08:16:17;5.13;;;1.67;;
75589;SDS011;64169;47.240;11.312;2023-03-14T08:18:43;4.60;;;1.50;;
75589;SDS011;64169;47.240;11.312;2023-03-14T08:21:08;3.70;;;1.25;;
75589;SDS011;64169;47.240;11.312;2023-03-14T08:23:34;3.88;;;1.40;;
75589;SDS011;64169;47.240;11.312;2023-03-14T08:26:00;4.25;;;1.75;;
75589;SDS011;64169;47.240;11.312;2023-03-14T08:28:25;3.88;;;1.40;;
75589;SDS011;64169;47.240;11.312;2023-03-14T08:30:55;4.03;;;1.40;;
75589;SDS011;64169;47.240;11.312;2023-03-14T08:33:21;4.40;;;1.52;;
75589;SDS011;64169;47.240;11.312;2023-03-14T08:35:47;4.07;;;1.30;;
75589;SDS011;64169;47.240;11.312;2023-03-14T08:38:13;4.18;;;1.50;;
75589;SDS011;64169;47.240;11.312;2023-03-14T08:40:38;4.63;;;1.30;;
75589;SDS011;64169;47.240;11.312;2023-03-14T08:43:03;6.45;;;1.80;;
75589;SDS011;64169;47.240;11.312;2023-03-14T08:45:29;3.40;;;1.33;;
75589;SDS011;64169;47.240;11.312;2023-03-14T08:47:54;4.40;;;1.52;;
75589;SDS011;64169;47.240;11.312;2023-03-14T08:50:20;4.28;;;1.35;;
75589;SDS011;64169;47.240;11.312;2023-03-14T08:52:45;3.33;;;1.10;;
75589;SDS011;64169;47.240;11.312;2023-03-14T08:55:11;3.75;;;1.25;;
75589;SDS011;64169;47.240;11.312;2023-03-14T08:57:36;4.07;;;1.27;;
75589;SDS011;64169;47.240;11.312;2023-03-14T09:00:02;3.13;;;1.05;;
75589;SDS011;64169;47.240;11.312;2023-03-14T09:02:30;3.83;;;1.10;;
75589;SDS011;64169;47.240;11.312;2023-03-14T09:04:56;4.57;;;1.40;;
75589;SDS011;64169;47.240;11.312;2023-03-14T09:07:21;3.88;;;1.25;;
75589;SDS011;64169;47.240;11.312;2023-03-14T09:09:47;3.35;;;1.20;;
75589;SDS011;64169;47.240;11.312;2023-03-14T09:12:12;5.07;;;1.83;;
75589;SDS011;64169;47.240;11.312;2023-03-14T09:14:38;3.15;;;1.20;;
75589;SDS011;64169;47.240;11.312;2023-03-14T09:17:04;3.78;;;1.10;;
75589;SDS011;64169;47.240;11.312;2023-03-14T09:19:29;3.83;;;1.20;;
75589;SDS011;64169;47.240;11.312;2023-03-14T09:21:55;3.95;;;1.30;;
75589;SDS011;64169;47.240;11.312;2023-03-14T09:24:20;4.30;;;1.05;;
75589;SDS011;64169;47.240;11.312;2023-03-14T09:26:46;5.35;;;1.45;;
75589;SDS011;64169;47.240;11.312;2023-03-14T09:29:11;5.68;;;1.60;;
75589;SDS011;64169;47.240;11.312;2023-03-14T09:31:37;4.00;;;1.40;;
75589;SDS011;64169;47.240;11.312;2023-03-14T09:34:02;5.03;;;1.55;;
75589;SDS011;64169;47.240;11.312;2023-03-14T09:36:27;3.25;;;1.05;;
75589;SDS011;64169;47.240;11.312;2023-03-14T09:38:53;2.72;;;0.95;;
75589;SDS011;64169;47.240;11.312;2023-03-14T09:41:21;1.98;;;0.73;;
75589;SDS011;64169;47.240;11.312;2023-03-14T09:43:48;1.13;;;0.55;;
75589;SDS011;64169;47.240;11.312;2023-03-14T09:46:16;2.40;;;0.80;;
75589;SDS011;64169;47.240;11.312;2023-03-14T09:48:41;3.30;;;0.90;;
75589;SDS011;64169;47.240;11.312;2023-03-14T09:51:16;2.65;;;0.95;;
75589;SDS011;64169;47.240;11.312;2023-03-14T09:53:44;3.33;;;1.10;;
75589;SDS011;64169;47.240;11.312;2023-03-14T09:56:16;3.15;;;1.20;;
75589;SDS011;64169;47.240;11.312;2023-03-14T09:58:53;3.60;;;1.00;;
75589;SDS011;64169;47.240;11.312;2023-03-14T10:01:22;2.30;;;0.80;;
75589;SDS011;64169;47.240;11.312;2023-03-14T10:03:50;2.58;;;0.73;;
75589;SDS011;64169;47.240;11.312;2023-03-14T10:06:19;2.97;;;0.80;;
75589;SDS011;64169;47.240;11.312;2023-03-14T10:08:47;1.50;;;0.63;;
75589;SDS011;64169;47.240;11.312;2023-03-14T10:11:16;2.13;;;0.70;;
75589;SDS011;64169;47.240;11.312;2023-03-14T10:13:49;2.22;;;0.80;;
75589;SDS011;64169;47.240;11.312;2023-03-14T10:16:41;1.50;;;0.60;;
75589;SDS011;64169;47.240;11.312;2023-03-14T10:19:15;1.33;;;0.55;;
75589;SDS011;64169;47.240;11.312;2023-03-14T10:21:42;1.27;;;0.60;;
75589;SDS011;64169;47.240;11.312;2023-03-14T10:24:09;1.35;;;0.40;;
75589;SDS011;64169;47.240;11.312;2023-03-14T10:27:05;2.10;;;0.60;;
75589;SDS011;64169;47.240;11.312;2023-03-14T10:29:34;1.75;;;0.57;;
75589;SDS011;64169;47.240;11.312;2023-03-14T10:32:04;1.70;;;0.70;;
75589;SDS011;64169;47.240;11.312;2023-03-14T10:34:36;3.22;;;0.68;;
75589;SDS011;64169;47.240;11.312;2023-03-14T10:37:22;1.45;;;0.50;;
75589;SDS011;64169;47.240;11.312;2023-03-14T10:39:51;1.65;;;0.50;;
75589;SDS011;64169;47.240;11.312;2023-03-14T10:42:22;2.63;;;0.85;;
75589;SDS011;64169;47.240;11.312;2023-03-14T10:45:24;3.58;;;0.90;;
75589;SDS011;64169;47.240;11.312;2023-03-14T10:47:48;3.45;;;1.00;;
75589;SDS011;64169;47.240;11.312;2023-03-14T10:50:21;3.47;;;1.25;;
75589;SDS011;64169;47.240;11.312;2023-03-14T10:52:49;4.53;;;0.95;;
75589;SDS011;64169;47.240;11.312;2023-03-14T10:55:16;3.53;;;1.20;;
75589;SDS011;64169;47.240;11.312;2023-03-14T10:57:42;5.05;;;1.00;;
75589;SDS011;64169;47.240;11.312;2023-03-14T11:00:15;2.97;;;0.90;;
75589;SDS011;64169;47.240;11.312;2023-03-14T11:08:15;2.92;;;1.00;;
75589;SDS011;64169;47.240;11.312;2023-03-14T11:10:45;2.75;;;1.00;;
75589;SDS011;64169;47.240;11.312;2023-03-14T11:13:19;2.53;;;1.02;;
75589;SDS011;64169;47.240;11.312;2023-03-14T11:21:31;3.55;;;1.10;;
75589;SDS011;64169;47.240;11.312;2023-03-14T11:27:07;3.25;;;1.10;;
75589;SDS011;64169;47.240;11.312;2023-03-14T11:29:39;2.95;;;1.00;;
75589;SDS011;64169;47.240;11.312;2023-03-14T11:32:19;4.40;;;1.42;;
75589;SDS011;64169;47.240;11.312;2023-03-14T11:35:05;4.63;;;1.15;;
75589;SDS011;64169;47.240;11.312;2023-03-14T11:37:45;2.53;;;0.82;;
75589;SDS011;64169;47.240;11.312;2023-03-14T11:40:17;3.83;;;1.15;;
75589;SDS011;64169;47.240;11.312;2023-03-14T11:42:48;3.33;;;1.30;;
75589;SDS011;64169;47.240;11.312;2023-03-14T11:45:21;4.15;;;1.30;;
75589;SDS011;64169;47.240;11.312;2023-03-14T11:50:59;2.60;;;1.00;;
75589;SDS011;64169;47.240;11.312;2023-03-14T11:55:58;2.60;;;0.85;;
75589;SDS011;64169;47.240;11.312;2023-03-14T11:58:26;3.60;;;1.20;;
75589;SDS011;64169;47.240;11.312;2023-03-14T12:00:53;3.08;;;1.10;;
75589;SDS011;64169;47.240;11.312;2023-03-14T12:05:54;3.63;;;1.00;;
75589;SDS011;64169;47.240;11.312;2023-03-14T12:13:51;3.92;;;1.52;;
75589;SDS011;64169;47.240;11.312;2023-03-14T12:18:49;4.10;;;1.52;;
75589;SDS011;64169;47.240;11.312;2023-03-14T12:21:18;3.75;;;1.30;;
75589;SDS011;64169;47.240;11.312;2023-03-14T12:23:53;4.22;;;1.48;;
75589;SDS011;64169;47.240;11.312;2023-03-14T12:26:24;2.88;;;1.23;;
75589;SDS011;64169;47.240;11.312;2023-03-14T12:34:03;3.80;;;1.27;;
75589;SDS011;64169;47.240;11.312;2023-03-14T12:39:16;3.20;;;1.23;;
75589;SDS011;64169;47.240;11.312;2023-03-14T12:42:00;3.55;;;1.30;;
75589;SDS011;64169;47.240;11.312;2023-03-14T12:44:39;2.78;;;0.93;;
75589;SDS011;64169;47.240;11.312;2023-03-14T12:49:47;3.80;;;1.20;;
75589;SDS011;64169;47.240;11.312;2023-03-14T12:55:06;3.22;;;1.05;;
75589;SDS011;64169;47.240;11.312;2023-03-14T12:57:39;4.38;;;1.27;;
75589;SDS011;64169;47.240;11.312;2023-03-14T13:00:20;3.50;;;1.20;;
75589;SDS011;64169;47.240;11.312;2023-03-14T13:02:48;4.43;;;1.35;;
75589;SDS011;64169;47.240;11.312;2023-03-14T13:05:21;5.05;;;1.20;;
75589;SDS011;64169;47.240;11.312;2023-03-14T13:15:46;3.08;;;1.27;;
75589;SDS011;64169;47.240;11.312;2023-03-14T13:18:46;3.45;;;1.33;;
75589;SDS011;64169;47.240;11.312;2023-03-14T13:21:16;4.00;;;1.40;;
75589;SDS011;64169;47.240;11.312;2023-03-14T13:26:35;4.43;;;1.45;;
75589;SDS011;64169;47.240;11.312;2023-03-14T13:31:53;4.05;;;1.33;;
75589;SDS011;64169;47.240;11.312;2023-03-14T13:34:21;4.15;;;1.65;;
75589;SDS011;64169;47.240;11.312;2023-03-14T13:36:46;3.85;;;1.30;;
75589;SDS011;64169;47.240;11.312;2023-03-14T13:39:20;4.63;;;1.50;;
75589;SDS011;64169;47.240;11.312;2023-03-14T13:41:50;3.88;;;1.40;;
75589;SDS011;64169;47.240;11.312;2023-03-14T13:44:26;4.88;;;1.30;;
75589;SDS011;64169;47.240;11.312;2023-03-14T13:46:58;4.50;;;1.73;;
75589;SDS011;64169;47.240;11.312;2023-03-14T13:49:24;6.13;;;2.35;;
75589;SDS011;64169;47.240;11.312;2023-03-14T13:51:51;5.60;;;2.40;;
75589;SDS011;64169;47.240;11.312;2023-03-14T13:54:18;6.00;;;2.10;;
75589;SDS011;64169;47.240;11.312;2023-03-14T13:56:44;5.05;;;1.83;;
75589;SDS011;64169;47.240;11.312;2023-03-14T14:02:14;5.65;;;2.10;;
75589;SDS011;64169;47.240;11.312;2023-03-14T14:04:39;5.97;;;2.22;;
75589;SDS011;64169;47.240;11.312;2023-03-14T14:07:13;4.72;;;2.28;;
75589;SDS011;64169;47.240;11.312;2023-03-14T14:09:50;7.05;;;1.90;;
75589;SDS011;64169;47.240;11.312;2023-03-14T14:12:18;4.57;;;1.85;;
75589;SDS011;64169;47.240;11.312;2023-03-14T14:20:07;4.72;;;2.20;;
75589;SDS011;64169;47.240;11.312;2023-03-14T14:22:36;5.40;;;2.10;;
75589;SDS011;64169;47.240;11.312;2023-03-14T14:25:02;4.78;;;1.95;;
75589;SDS011;64169;47.240;11.312;2023-03-14T14:27:37;5.97;;;2.47;;
75589;SDS011;64169;47.240;11.312;2023-03-14T14:30:22;4.78;;;2.00;;
75589;SDS011;64169;47.240;11.312;2023-03-14T14:32:50;5.32;;;2.30;;
75589;SDS011;64169;47.240;11.312;2023-03-14T14:35:30;6.78;;;2.05;;
75589;SDS011;64169;47.240;11.312;2023-03-14T14:37:56;5.82;;;2.15;;
75589;SDS011;64169;47.240;11.312;2023-03-14T14:40:23;4.95;;;2.03;;
75589;SDS011;64169;47.240;11.312;2023-03-14T14:42:50;5.03;;;2.13;;
75589;SDS011;64169;47.240;11.312;2023-03-14T14:45:16;5.47;;;2.45;;
75589;SDS011;64169;47.240;11.312;2023-03-14T14:50:33;5.00;;;2.03;;
75589;SDS011;64169;47.240;11.312;2023-03-14T14:53:18;5.13;;;1.90;;
75589;SDS011;64169;47.240;11.312;2023-03-14T14:55:49;4.85;;;1.60;;
75589;SDS011;64169;47.240;11.312;2023-03-14T14:58:29;3.83;;;1.33;;
75589;SDS011;64169;47.240;11.312;2023-03-14T15:01:03;3.78;;;1.23;;
75589;SDS011;64169;47.240;11.312;2023-03-14T15:03:50;2.45;;;0.90;;
75589;SDS011;64169;47.240;11.312;2023-03-14T15:06:17;2.13;;;0.70;;
75589;SDS011;64169;47.240;11.312;2023-03-14T15:08:43;3.15;;;1.20;;
75589;SDS011;64169;47.240;11.312;2023-03-14T15:11:17;2.22;;;0.75;;
75589;SDS011;64169;47.240;11.312;2023-03-14T15:13:44;2.63;;;0.90;;
75589;SDS011;64169;47.240;11.312;2023-03-14T15:16:13;1.63;;;0.52;;
75589;SDS011;64169;47.240;11.312;2023-03-14T15:18:40;1.23;;;0.40;;
75589;SDS011;64169;47.240;11.312;2023-03-14T15:21:08;1.20;;;0.47;;
75589;SDS011;64169;47.240;11.312;2023-03-14T15:23:34;1.02;;;0.45;;
75589;SDS011;64169;47.240;11.312;2023-03-14T15:26:00;0.73;;;0.40;;
75589;SDS011;64169;47.240;11.312;2023-03-14T15:28:26;1.45;;;0.38;;
75589;SDS011;64169;47.240;11.312;2023-03-14T15:30:53;1.27;;;0.68;;
75589;SDS011;64169;47.240;11.312;2023-03-14T15:33:20;0.10;;;0.10;;
75589;SDS011;64169;47.240;11.312;2023-03-14T15:35:46;1.08;;;0.52;;
75589;SDS011;64169;47.240;11.312;2023-03-14T15:38:13;0.70;;;0.30;;
75589;SDS011;64169;47.240;11.312;2023-03-14T15:40:40;0.80;;;0.40;;
75589;SDS011;64169;47.240;11.312;2023-03-14T15:43:06;1.13;;;0.50;;
75589;SDS011;64169;47.240;11.312;2023-03-14T15:45:31;1.13;;;0.40;;
75589;SDS011;64169;47.240;11.312;2023-03-14T15:47:56;0.68;;;0.30;;
75589;SDS011;64169;47.240;11.312;2023-03-14T15:50:22;0.77;;;0.40;;
75589;SDS011;64169;47.240;11.312;2023-03-14T15:52:48;0.25;;;0.20;;
75589;SDS011;64169;47.240;11.312;2023-03-14T15:55:14;0.20;;;0.20;;